Time;durP1;ratioP1;P1;durP2;ratioP2;P2;SDS_P1;SDS_P2;PMS_P1;PMS_P2;Temp;Humidity;BMP_temperature;BMP_pressure;BME280_temperature;BME280_humidity;BME280_pressure;Samples;Min_cycle;Max_cycle;Signal;HPM_P1;HPM_P2
2023/12/21 00:02:23;;;;;;;4.00;2.97;;;;;;;;;;5075067;28;20041;-72
2023/12/21 00:04:50;;;;;;;4.05;3.13;;;;;;;;;;5076363;28;20383;-72
2023/12/21 00:07:16;;;;;;;4.07;2.90;;;;;;;;;;5076568;28;20459;-72
2023/12/21 00:09:41;;;;;;;3.42;2.50;;;;;;;;;;5076259;28;20032;-72
2023/12/21 00:12:07;;;;;;;3.28;2.65;;;;;;;;;;5076544;28;20036;-72
2023/12/21 00:14:32;;;;;;;3.03;2.47;;;;;;;;;;5091784;28;20035;-72
2023/12/21 00:16:58;;;;;;;4.65;2.72;;;;;;;;;;5076081;28;20039;-72
2023/12/21 00:19:23;;;;;;;5.55;3.25;;;;;;;;;;5076132;28;20462;-72
2023/12/21 00:21:48;;;;;;;4.38;3.05;;;;;;;;;;5076080;28;20444;-72
2023/12/21 00:24:15;;;;;;;3.63;2.75;;;;;;;;;;5076031;28;20514;-74
2023/12/21 00:26:40;;;;;;;3.47;2.67;;;;;;;;;;5094675;22;20056;-73
2023/12/21 00:29:06;;;;;;;4.60;2.60;;;;;;;;;;5091500;28;20028;-72
2023/12/21 00:31:31;;;;;;;3.40;2.97;;;;;;;;;;5076146;28;20056;-72
2023/12/21 00:33:57;;;;;;;3.47;2.83;;;;;;;;;;5075854;28;20473;-72
2023/12/21 00:36:22;;;;;;;4.57;2.60;;;;;;;;;;5074477;28;20534;-71
2023/12/21 00:38:48;;;;;;;3.25;2.60;;;;;;;;;;5075781;28;20486;-72
2023/12/21 00:41:13;;;;;;;4.25;2.58;;;;;;;;;;5075898;28;20060;-72
2023/12/21 00:43:38;;;;;;;4.40;2.88;;;;;;;;;;5091300;28;20028;-73
2023/12/21 00:46:04;;;;;;;3.00;2.45;;;;;;;;;;5074681;28;20082;-73
2023/12/21 00:48:29;;;;;;;4.57;2.60;;;;;;;;;;5075537;28;20063;-72
2023/12/21 00:50:55;;;;;;;3.35;2.38;;;;;;;;;;5075541;28;20029;-72
2023/12/21 00:53:21;;;;;;;3.40;2.30;;;;;;;;;;5090994;28;20033;-73
2023/12/21 00:55:46;;;;;;;2.80;2.53;;;;;;;;;;5074256;28;20031;-72
2023/12/21 00:58:11;;;;;;;4.88;2.92;;;;;;;;;;5074563;28;20498;-72
2023/12/21 01:00:37;;;;;;;4.53;2.80;;;;;;;;;;5075350;28;20086;-72
2023/12/21 01:03:02;;;;;;;3.50;2.05;;;;;;;;;;5075250;28;20056;-72
2023/12/21 01:05:27;;;;;;;4.38;2.35;;;;;;;;;;5075491;28;20021;-72
2023/12/21 01:07:53;;;;;;;3.75;2.65;;;;;;;;;;5073972;28;20027;-72
2023/12/21 01:10:18;;;;;;;4.70;2.72;;;;;;;;;;5075099;28;20123;-72
2023/12/21 01:12:43;;;;;;;4.78;2.58;;;;;;;;;;5075017;28;20062;-72
2023/12/21 01:15:09;;;;;;;3.30;2.35;;;;;;;;;;5057039;28;20074;-72
2023/12/21 01:17:34;;;;;;;3.28;2.60;;;;;;;;;;5075473;28;20063;-72
2023/12/21 01:20:00;;;;;;;4.72;2.10;;;;;;;;;;5075392;28;20169;-72
2023/12/21 01:22:25;;;;;;;2.97;2.55;;;;;;;;;;5074010;28;20035;-72
2023/12/21 01:24:51;;;;;;;3.13;2.13;;;;;;;;;;5074657;28;20082;-72
2023/12/21 01:27:16;;;;;;;2.42;2.10;;;;;;;;;;5074598;28;20051;-72
2023/12/21 01:29:42;;;;;;;4.00;2.20;;;;;;;;;;5074691;28;20028;-73
2023/12/21 01:32:07;;;;;;;3.08;2.25;;;;;;;;;;5074699;28;20028;-73
2023/12/21 01:34:32;;;;;;;4.38;2.38;;;;;;;;;;5074620;28;20052;-73
2023/12/21 01:36:58;;;;;;;3.63;2.63;;;;;;;;;;5090155;28;20120;-73
2023/12/21 01:39:23;;;;;;;3.15;2.08;;;;;;;;;;5074480;28;20060;-73
2023/12/21 01:41:49;;;;;;;2.50;1.92;;;;;;;;;;5073237;28;20044;-73
2023/12/21 01:44:14;;;;;;;2.53;2.03;;;;;;;;;;5074693;28;20025;-73
2023/12/21 01:46:40;;;;;;;3.38;2.40;;;;;;;;;;5074932;28;20110;-73
2023/12/21 01:49:06;;;;;;;2.63;2.03;;;;;;;;;;5056442;28;20123;-73
2023/12/21 01:51:32;;;;;;;3.80;2.22;;;;;;;;;;5074570;28;20060;-73
2023/12/21 01:53:57;;;;;;;2.70;1.80;;;;;;;;;;5074376;28;20025;-73
2023/12/21 01:56:23;;;;;;;2.45;2.13;;;;;;;;;;5072987;28;20390;-73
2023/12/21 01:58:49;;;;;;;2.35;2.15;;;;;;;;;;5074183;28;20032;-72
2023/12/21 02:01:17;;;;;;;2.45;2.00;;;;;;;;;;5074164;28;20021;-72
2023/12/21 02:03:42;;;;;;;2.17;1.80;;;;;;;;;;5074118;28;20040;-72
2023/12/21 02:06:08;;;;;;;2.40;1.80;;;;;;;;;;5072847;28;20017;-72
2023/12/21 02:08:33;;;;;;;2.35;2.15;;;;;;;;;;5074071;28;20017;-72
2023/12/21 02:10:59;;;;;;;0.90;0.90;;;;;;;;;;5072169;28;20028;-72
2023/12/21 02:13:24;;;;;;;2.58;1.80;;;;;;;;;;5074388;28;20028;-72
2023/12/21 02:15:52;;;;;;;2.70;1.95;;;;;;;;;;5074143;28;20032;-72
2023/12/21 02:18:19;;;;;;;2.40;1.90;;;;;;;;;;5073888;28;20483;-72
2023/12/21 02:20:46;;;;;;;2.78;2.28;;;;;;;;;;5106316;22;20139;-71
2023/12/21 02:23:13;;;;;;;2.70;1.88;;;;;;;;;;5093037;22;20040;-72
2023/12/21 02:25:39;;;;;;;2.92;1.80;;;;;;;;;;5072671;28;20099;-73
2023/12/21 02:28:04;;;;;;;2.15;1.95;;;;;;;;;;5073825;28;20450;-73
2023/12/21 02:30:30;;;;;;;1.88;1.75;;;;;;;;;;5073760;28;20466;-71
2023/12/21 02:32:56;;;;;;;2.22;2.00;;;;;;;;;;5090358;22;20122;-71
2023/12/21 02:35:21;;;;;;;2.65;2.45;;;;;;;;;;5072561;28;20055;-71
2023/12/21 02:37:46;;;;;;;2.58;2.17;;;;;;;;;;5073636;28;20413;-71
2023/12/21 02:40:12;;;;;;;2.20;1.83;;;;;;;;;;5073634;28;20017;-71
2023/12/21 02:42:37;;;;;;;2.42;1.70;;;;;;;;;;5072406;28;20474;-71
2023/12/21 02:45:02;;;;;;;1.05;0.60;;;;;;;;;;5055622;28;20044;-72
2023/12/21 02:47:28;;;;;;;2.25;1.88;;;;;;;;;;5073588;28;20024;-72
2023/12/21 02:49:53;;;;;;;2.15;1.77;;;;;;;;;;5073573;28;20485;-73
2023/12/21 02:52:18;;;;;;;3.35;1.92;;;;;;;;;;5074121;28;20090;-72
2023/12/21 02:54:44;;;;;;;2.50;1.92;;;;;;;;;;5073522;28;20039;-72
2023/12/21 02:57:10;;;;;;;2.83;1.83;;;;;;;;;;5073696;28;20115;-72
2023/12/21 02:59:35;;;;;;;1.45;1.35;;;;;;;;;;5074017;28;20035;-72
2023/12/21 03:02:00;;;;;;;2.08;1.55;;;;;;;;;;5055487;28;20028;-72
2023/12/21 03:04:26;;;;;;;1.90;1.42;;;;;;;;;;5072530;28;20056;-71
2023/12/21 03:06:51;;;;;;;2.25;1.50;;;;;;;;;;5072492;28;20041;-72
2023/12/21 03:09:18;;;;;;;2.47;1.45;;;;;;;;;;5073394;28;20033;-72
2023/12/21 03:11:43;;;;;;;1.13;0.95;;;;;;;;;;5073909;28;20024;-72
2023/12/21 03:14:08;;;;;;;3.50;1.75;;;;;;;;;;5072135;28;20478;-72
2023/12/21 03:16:34;;;;;;;1.58;1.48;;;;;;;;;;5073219;28;20429;-72
2023/12/21 03:18:59;;;;;;;1.15;1.05;;;;;;;;;;5073565;28;20115;-72
2023/12/21 03:21:24;;;;;;;1.52;1.35;;;;;;;;;;5074976;28;20067;-72
2023/12/21 03:23:50;;;;;;;1.60;1.17;;;;;;;;;;5092798;28;20036;-72
2023/12/21 03:26:15;;;;;;;1.40;1.30;;;;;;;;;;5077138;28;20099;-71
2023/12/21 03:28:45;;;;;;;1.70;1.50;;;;;;;;;;5077063;28;20012;-71
2023/12/21 03:31:10;;;;;;;2.15;1.60;;;;;;;;;;5077330;28;20028;-71
2023/12/21 03:33:36;;;;;;;1.55;1.45;;;;;;;;;;5091496;22;20324;-74
2023/12/21 03:36:01;;;;;;;1.75;1.33;;;;;;;;;;5078864;28;20070;-71
2023/12/21 03:38:26;;;;;;;1.27;1.17;;;;;;;;;;5078953;28;20024;-71
2023/12/21 03:40:52;;;;;;;1.52;1.42;;;;;;;;;;5097289;28;20012;-71
2023/12/21 03:43:17;;;;;;;1.20;1.10;;;;;;;;;;5097956;28;20032;-71
2023/12/21 03:45:42;;;;;;;1.77;1.48;;;;;;;;;;5079476;28;20036;-71
2023/12/21 03:48:08;;;;;;;2.03;1.33;;;;;;;;;;5097359;28;20032;-72
2023/12/21 03:50:34;;;;;;;1.65;1.55;;;;;;;;;;5078785;28;20079;-71
2023/12/21 03:52:59;;;;;;;1.67;1.48;;;;;;;;;;5096932;28;20497;-72
2023/12/21 03:55:24;;;;;;;2.53;1.45;;;;;;;;;;5096830;28;20362;-72
2023/12/21 03:57:50;;;;;;;1.38;1.20;;;;;;;;;;5095783;28;20115;-72
2023/12/21 04:00:18;;;;;;;2.47;1.23;;;;;;;;;;5097018;28;20161;-71
2023/12/21 04:02:43;;;;;;;0.70;0.70;;;;;;;;;;5096955;28;20028;-71
2023/12/21 04:05:09;;;;;;;1.55;1.45;;;;;;;;;;5096915;28;20455;-72
2023/12/21 04:07:34;;;;;;;1.30;1.20;;;;;;;;;;5078342;28;20127;-72
2023/12/21 04:10:00;;;;;;;1.55;1.45;;;;;;;;;;5097092;28;20067;-72
2023/12/21 04:12:26;;;;;;;1.88;1.50;;;;;;;;;;5078903;28;20381;-72
2023/12/21 04:14:51;;;;;;;1.15;1.08;;;;;;;;;;5096476;28;20024;-71
2023/12/21 04:17:16;;;;;;;1.70;1.23;;;;;;;;;;5078137;28;20023;-72
2023/12/21 04:19:42;;;;;;;1.27;1.02;;;;;;;;;;5078199;28;20107;-72
2023/12/21 04:22:08;;;;;;;1.38;1.30;;;;;;;;;;5096862;28;20051;-71
2023/12/21 04:24:33;;;;;;;1.20;0.95;;;;;;;;;;5096542;28;20428;-72
2023/12/21 04:26:58;;;;;;;1.50;1.20;;;;;;;;;;5078737;28;20072;-72
2023/12/21 04:29:24;;;;;;;1.30;1.20;;;;;;;;;;5078018;28;20073;-74
2023/12/21 04:31:50;;;;;;;2.00;1.25;;;;;;;;;;5096091;28;20028;-72
2023/12/21 04:34:15;;;;;;;1.67;1.10;;;;;;;;;;5094822;28;20075;-73
2023/12/21 04:36:40;;;;;;;1.17;1.02;;;;;;;;;;5077763;28;20035;-73
2023/12/21 04:39:06;;;;;;;1.60;1.27;;;;;;;;;;5095943;28;20024;-73
2023/12/21 04:41:31;;;;;;;1.58;0.90;;;;;;;;;;5096239;28;20028;-73
2023/12/21 04:43:56;;;;;;;1.23;1.10;;;;;;;;;;5095891;28;20016;-73
2023/12/21 04:46:22;;;;;;;1.40;1.10;;;;;;;;;;5095819;28;20034;-73
2023/12/21 04:48:47;;;;;;;0.80;0.80;;;;;;;;;;5096070;28;20474;-73
2023/12/21 04:51:13;;;;;;;0.68;0.68;;;;;;;;;;5060904;28;20462;-72
2023/12/21 04:53:39;;;;;;;2.95;1.25;;;;;;;;;;5095679;28;20028;-72
2023/12/21 04:56:04;;;;;;;0.90;0.80;;;;;;;;;;5096139;28;20043;-72
2023/12/21 04:58:30;;;;;;;1.05;1.00;;;;;;;;;;5094894;28;20016;-72
2023/12/21 05:00:58;;;;;;;1.00;0.77;;;;;;;;;;5095044;28;20470;-72
2023/12/21 05:03:24;;;;;;;1.52;0.93;;;;;;;;;;5094043;28;20088;-72
2023/12/21 05:05:49;;;;;;;2.03;1.40;;;;;;;;;;5077266;28;20028;-73
2023/12/21 05:08:14;;;;;;;0.65;0.65;;;;;;;;;;5095181;28;20024;-72
2023/12/21 05:10:40;;;;;;;0.93;0.93;;;;;;;;;;5095083;28;20394;-72
2023/12/21 05:13:06;;;;;;;1.38;1.02;;;;;;;;;;5094065;28;20043;-72
2023/12/21 05:15:32;;;;;;;1.02;0.90;;;;;;;;;;5095185;28;20482;-72
2023/12/21 05:17:58;;;;;;;1.15;1.00;;;;;;;;;;5094848;28;20497;-72
2023/12/21 05:20:23;;;;;;;0.95;0.73;;;;;;;;;;5095288;28;20028;-72
2023/12/21 05:22:49;;;;;;;2.78;0.88;;;;;;;;;;5094029;28;20077;-72
2023/12/21 05:25:16;;;;;;;1.10;0.90;;;;;;;;;;5092161;28;20039;-72
2023/12/21 05:27:41;;;;;;;0.60;0.52;;;;;;;;;;5094514;28;20364;-72
2023/12/21 05:30:07;;;;;;;1.35;1.17;;;;;;;;;;5076576;28;20025;-72
2023/12/21 05:32:32;;;;;;;1.10;1.00;;;;;;;;;;5094791;28;20378;-72
2023/12/21 05:34:57;;;;;;;2.45;0.93;;;;;;;;;;5080102;28;20051;-72
2023/12/21 05:37:26;;;;;;;0.30;0.30;;;;;;;;;;5072370;28;20044;-72
2023/12/21 05:39:51;;;;;;;0.75;0.68;;;;;;;;;;5072259;28;20055;-72
2023/12/21 05:42:16;;;;;;;1.08;1.00;;;;;;;;;;5072064;28;20048;-71
2023/12/21 05:44:42;;;;;;;0.85;0.85;;;;;;;;;;5073215;28;20441;-71
2023/12/21 05:47:07;;;;;;;0.70;0.70;;;;;;;;;;5073336;28;20089;-70
2023/12/21 05:49:32;;;;;;;0.80;0.75;;;;;;;;;;5073322;28;20039;-70
2023/12/21 05:51:59;;;;;;;0.82;0.82;;;;;;;;;;5073270;28;20039;-71
2023/12/21 05:54:24;;;;;;;0.60;0.60;;;;;;;;;;5073197;28;20028;-71
2023/12/21 05:56:50;;;;;;;0.73;0.70;;;;;;;;;;5073060;28;20351;-70
2023/12/21 05:59:16;;;;;;;1.48;0.80;;;;;;;;;;5073157;28;20055;-70
2023/12/21 06:01:42;;;;;;;0.98;0.85;;;;;;;;;;5073329;28;20028;-70
2023/12/21 06:04:07;;;;;;;0.70;0.70;;;;;;;;;;5073056;28;20036;-70
2023/12/21 06:06:33;;;;;;;1.00;0.77;;;;;;;;;;5071848;28;20375;-71
2023/12/21 06:08:58;;;;;;;0.88;0.88;;;;;;;;;;5073111;28;20119;-71
2023/12/21 06:11:24;;;;;;;0.75;0.75;;;;;;;;;;5073090;28;20033;-71
2023/12/21 06:13:49;;;;;;;0.85;0.85;;;;;;;;;;5071681;28;20048;-71
2023/12/21 06:16:14;;;;;;;1.60;0.98;;;;;;;;;;5073240;28;20363;-71
2023/12/21 06:18:41;;;;;;;0.30;0.30;;;;;;;;;;5074006;28;20036;-71
2023/12/21 06:21:06;;;;;;;0.50;0.47;;;;;;;;;;5073874;28;20028;-71
2023/12/21 06:23:34;;;;;;;0.60;0.50;;;;;;;;;;5073868;28;20466;-71
2023/12/21 06:25:59;;;;;;;0.88;0.60;;;;;;;;;;5071193;28;20078;-71
2023/12/21 06:28:24;;;;;;;1.25;1.15;;;;;;;;;;5071765;28;20035;-71
2023/12/21 06:30:50;;;;;;;0.65;0.40;;;;;;;;;;5072142;28;20398;-71
2023/12/21 06:33:16;;;;;;;0.85;0.75;;;;;;;;;;5071843;28;20048;-71
2023/12/21 06:35:42;;;;;;;0.55;0.55;;;;;;;;;;5086992;28;20494;-71
2023/12/21 06:38:07;;;;;;;1.35;1.25;;;;;;;;;;5070956;28;20039;-71
2023/12/21 06:40:33;;;;;;;0.82;0.82;;;;;;;;;;5071402;28;20036;-72
2023/12/21 06:42:58;;;;;;;3.03;1.08;;;;;;;;;;5089071;28;20485;-71
2023/12/21 06:45:25;;;;;;;0.63;0.55;;;;;;;;;;5073739;28;20032;-72
2023/12/21 06:47:50;;;;;;;1.30;1.15;;;;;;;;;;5073620;28;20078;-72
2023/12/21 06:50:15;;;;;;;0.95;0.88;;;;;;;;;;5073167;28;20028;-72
2023/12/21 06:52:41;;;;;;;0.40;0.40;;;;;;;;;;5073008;28;20163;-72
2023/12/21 06:55:07;;;;;;;1.05;1.00;;;;;;;;;;5073694;28;20037;-72
2023/12/21 06:57:32;;;;;;;0.47;0.43;;;;;;;;;;5076574;28;20029;-72
2023/12/21 06:59:57;;;;;;;1.23;1.13;;;;;;;;;;5093024;28;20032;-72
2023/12/21 07:02:23;;;;;;;1.13;1.02;;;;;;;;;;5077622;28;20115;-71
2023/12/21 07:07:31;;;;;;;1.33;0.90;;;;;;;;;;5101227;22;20127;-72
2023/12/21 07:09:57;;;;;;;1.13;0.80;;;;;;;;;;5077441;28;20424;-72
2023/12/21 07:12:24;;;;;;;1.20;1.15;;;;;;;;;;5077973;28;20008;-72
2023/12/21 07:14:50;;;;;;;0.57;0.57;;;;;;;;;;5077357;28;20390;-71
2023/12/21 07:17:16;;;;;;;1.30;1.20;;;;;;;;;;5077516;28;20031;-71
2023/12/21 07:19:41;;;;;;;1.17;0.82;;;;;;;;;;5092935;28;20034;-72
2023/12/21 07:22:07;;;;;;;1.13;1.00;;;;;;;;;;5076334;28;20024;-71
2023/12/21 07:24:33;;;;;;;1.70;0.90;;;;;;;;;;5077730;28;20017;-71
2023/12/21 07:26:58;;;;;;;1.15;1.15;;;;;;;;;;5077388;28;20025;-71
2023/12/21 07:29:24;;;;;;;1.20;1.10;;;;;;;;;;5077112;28;20463;-71
2023/12/21 07:31:49;;;;;;;2.63;1.55;;;;;;;;;;5075742;28;20032;-71
2023/12/21 07:34:15;;;;;;;0.73;0.73;;;;;;;;;;5075732;28;20021;-71
2023/12/21 07:36:40;;;;;;;1.05;0.98;;;;;;;;;;5076907;28;20028;-71
2023/12/21 07:39:06;;;;;;;1.48;1.38;;;;;;;;;;5077472;28;20113;-71
2023/12/21 07:41:31;;;;;;;0.70;0.70;;;;;;;;;;5058902;28;20024;-71
2023/12/21 07:43:57;;;;;;;0.95;0.90;;;;;;;;;;5076819;28;20033;-71
2023/12/21 07:46:23;;;;;;;1.08;0.90;;;;;;;;;;5077326;28;20036;-71
2023/12/21 07:48:49;;;;;;;1.00;1.00;;;;;;;;;;5075703;28;20050;-71
2023/12/21 07:51:14;;;;;;;0.38;0.38;;;;;;;;;;5076717;28;20459;-71
2023/12/21 07:53:40;;;;;;;1.17;0.88;;;;;;;;;;5076639;28;20020;-71
2023/12/21 07:56:06;;;;;;;1.35;0.88;;;;;;;;;;5092278;28;20028;-71
2023/12/21 07:58:31;;;;;;;1.25;0.77;;;;;;;;;;5076467;28;20082;-71
2023/12/21 08:00:57;;;;;;;1.08;0.65;;;;;;;;;;5076529;28;20417;-71
2023/12/21 08:03:22;;;;;;;0.52;0.50;;;;;;;;;;5076731;28;20033;-71
2023/12/21 08:05:47;;;;;;;1.20;0.70;;;;;;;;;;5076422;28;20055;-71
2023/12/21 08:08:13;;;;;;;1.30;0.60;;;;;;;;;;5076424;28;20037;-71
2023/12/21 08:10:38;;;;;;;0.95;0.45;;;;;;;;;;5076573;28;20173;-71
2023/12/21 08:13:03;;;;;;;0.80;0.60;;;;;;;;;;5076573;28;20078;-71
2023/12/21 08:15:29;;;;;;;1.15;1.10;;;;;;;;;;5076751;28;20028;-71
2023/12/21 08:17:56;;;;;;;2.25;1.38;;;;;;;;;;5076172;28;20033;-71
2023/12/21 08:20:24;;;;;;;2.17;1.58;;;;;;;;;;5076164;28;20119;-71
2023/12/21 08:22:49;;;;;;;1.80;1.10;;;;;;;;;;5076374;28;20025;-71
2023/12/21 08:25:14;;;;;;;0.73;0.70;;;;;;;;;;5074874;28;20505;-71
2023/12/21 08:27:43;;;;;;;1.77;1.15;;;;;;;;;;5091558;28;20028;-71
2023/12/21 08:30:10;;;;;;;1.30;1.20;;;;;;;;;;5074679;28;20059;-70
2023/12/21 08:32:35;;;;;;;1.00;0.70;;;;;;;;;;5074686;28;20033;-71
2023/12/21 08:35:01;;;;;;;1.30;1.17;;;;;;;;;;5076149;28;20446;-71
2023/12/21 08:37:26;;;;;;;0.43;0.43;;;;;;;;;;5076068;28;20037;-71
2023/12/21 08:42:27;;;;;;;0.90;0.90;;;;;;;;;;5013430;28;20050;-70
2023/12/21 08:44:52;;;;;;;0.55;0.55;;;;;;;;;;5016195;28;20033;-71
2023/12/21 08:47:18;;;;;;;0.75;0.75;;;;;;;;;;5015871;28;20164;-71
2023/12/21 08:49:43;;;;;;;2.85;1.13;;;;;;;;;;5015860;28;20117;-71
2023/12/21 08:52:09;;;;;;;1.23;0.82;;;;;;;;;;4998866;28;20041;-71
2023/12/21 08:54:35;;;;;;;1.27;1.17;;;;;;;;;;5016052;28;20030;-71
2023/12/21 08:57:01;;;;;;;1.35;0.60;;;;;;;;;;5015652;28;20026;-71
2023/12/21 08:59:26;;;;;;;1.45;1.17;;;;;;;;;;5016129;28;20037;-70
2023/12/21 09:01:53;;;;;;;1.00;1.00;;;;;;;;;;5016159;28;20033;-70
2023/12/21 09:04:19;;;;;;;1.20;1.10;;;;;;;;;;4997903;28;20029;-70
2023/12/21 09:06:44;;;;;;;0.60;0.60;;;;;;;;;;4998381;28;20041;-71
2023/12/21 09:09:13;;;;;;;1.02;1.02;;;;;;;;;;5015347;28;20445;-71
2023/12/21 09:11:39;;;;;;;0.93;0.93;;;;;;;;;;5015413;28;20045;-71
2023/12/21 09:14:04;;;;;;;0.88;0.88;;;;;;;;;;4997795;28;20037;-71
2023/12/21 09:16:29;;;;;;;1.30;1.13;;;;;;;;;;5015356;28;20050;-71
2023/12/21 09:18:55;;;;;;;1.10;1.00;;;;;;;;;;4997250;28;20109;-71
2023/12/21 09:21:20;;;;;;;1.20;1.15;;;;;;;;;;5015242;28;20026;-71
2023/12/21 09:23:46;;;;;;;1.75;1.52;;;;;;;;;;5015210;28;20037;-71
2023/12/21 09:26:13;;;;;;;1.30;1.17;;;;;;;;;;5015147;28;20037;-71
2023/12/21 09:28:39;;;;;;;1.00;0.73;;;;;;;;;;5015643;28;20026;-71
2023/12/21 09:31:05;;;;;;;1.35;1.25;;;;;;;;;;4997482;28;20409;-71
2023/12/21 09:33:33;;;;;;;1.80;1.08;;;;;;;;;;5015017;28;20025;-71
2023/12/21 09:35:58;;;;;;;2.25;1.08;;;;;;;;;;5015031;28;20071;-71
2023/12/21 09:38:24;;;;;;;0.93;0.65;;;;;;;;;;4997271;28;20124;-71
2023/12/21 09:40:49;;;;;;;1.13;1.02;;;;;;;;;;5014764;28;20042;-71
2023/12/21 09:43:17;;;;;;;0.70;0.70;;;;;;;;;;5014743;28;20030;-72
2023/12/21 09:45:43;;;;;;;1.48;0.98;;;;;;;;;;4997599;28;20117;-71
2023/12/21 09:48:09;;;;;;;1.17;1.05;;;;;;;;;;4997663;28;20527;-72
2023/12/21 09:50:35;;;;;;;0.95;0.80;;;;;;;;;;5014985;28;20026;-72
2023/12/21 09:53:01;;;;;;;1.90;1.10;;;;;;;;;;4997717;28;20056;-71
2023/12/21 09:55:28;;;;;;;1.10;1.08;;;;;;;;;;5014688;28;20042;-72
2023/12/21 10:00:25;;;;;;;2.80;1.13;;;;;;;;;;5045054;28;20046;-72
2023/12/21 10:02:50;;;;;;;2.42;0.50;;;;;;;;;;5047676;28;20076;-72
2023/12/21 10:05:16;;;;;;;0.63;0.63;;;;;;;;;;5034510;28;20037;-72
2023/12/21 10:07:42;;;;;;;0.73;0.73;;;;;;;;;;5034221;28;20100;-72
2023/12/21 10:10:07;;;;;;;0.65;0.65;;;;;;;;;;5032866;28;20056;-72
2023/12/21 10:12:33;;;;;;;0.82;0.82;;;;;;;;;;5034405;28;20040;-72
2023/12/21 10:14:59;;;;;;;1.42;1.25;;;;;;;;;;5034035;28;20520;-72
2023/12/21 10:17:24;;;;;;;1.08;0.93;;;;;;;;;;5033953;28;20038;-72
2023/12/21 10:19:49;;;;;;;1.17;1.08;;;;;;;;;;5034014;28;20049;-72
2023/12/21 10:22:15;;;;;;;0.65;0.40;;;;;;;;;;5033986;28;20369;-72
2023/12/21 10:24:42;;;;;;;2.90;1.17;;;;;;;;;;5033950;28;20021;-71
2023/12/21 10:27:13;;;;;;;1.23;1.10;;;;;;;;;;5049915;28;20040;-71
2023/12/21 10:29:38;;;;;;;2.35;1.15;;;;;;;;;;5016304;28;20051;-71
2023/12/21 10:32:03;;;;;;;1.00;0.95;;;;;;;;;;5033301;28;20029;-71
2023/12/21 10:34:29;;;;;;;0.75;0.68;;;;;;;;;;5034053;28;20065;-72
2023/12/21 10:37:00;;;;;;;0.82;0.82;;;;;;;;;;5033686;28;20475;-72
2023/12/21 10:39:26;;;;;;;2.20;1.13;;;;;;;;;;5033991;28;20460;-72
2023/12/21 10:41:52;;;;;;;1.58;1.05;;;;;;;;;;5033702;28;20079;-72
2023/12/21 10:44:17;;;;;;;1.73;0.90;;;;;;;;;;5033697;28;20033;-72
2023/12/21 10:46:43;;;;;;;1.02;1.00;;;;;;;;;;5016079;28;20039;-71
2023/12/21 10:49:10;;;;;;;1.48;1.30;;;;;;;;;;5033586;28;20029;-71
2023/12/21 10:51:36;;;;;;;1.10;1.00;;;;;;;;;;5033613;28;20033;-71
2023/12/21 10:54:04;;;;;;;0.57;0.57;;;;;;;;;;5033527;28;20041;-71
2023/12/21 10:56:30;;;;;;;0.95;0.88;;;;;;;;;;5034047;28;20037;-71
2023/12/21 10:58:55;;;;;;;1.30;1.00;;;;;;;;;;5033368;28;20041;-71
2023/12/21 11:01:22;;;;;;;1.08;1.00;;;;;;;;;;5033489;28;20025;-71
2023/12/21 11:03:52;;;;;;;1.30;1.10;;;;;;;;;;5048886;28;20472;-71
2023/12/21 11:06:17;;;;;;;1.00;0.82;;;;;;;;;;5032222;28;20399;-71
2023/12/21 11:08:44;;;;;;;0.50;0.40;;;;;;;;;;5015928;28;20030;-71
2023/12/21 11:11:11;;;;;;;0.85;0.65;;;;;;;;;;5016074;28;20456;-71
2023/12/21 11:13:40;;;;;;;1.20;0.90;;;;;;;;;;5033430;28;20032;-71
2023/12/21 11:16:07;;;;;;;1.15;1.05;;;;;;;;;;5033391;28;20018;-71
2023/12/21 11:18:32;;;;;;;1.30;1.20;;;;;;;;;;5033279;28;20041;-71
2023/12/21 11:20:59;;;;;;;1.15;0.88;;;;;;;;;;5033327;28;20487;-71
2023/12/21 11:23:26;;;;;;;0.47;0.47;;;;;;;;;;5033351;28;20056;-71
2023/12/21 11:25:55;;;;;;;0.60;0.60;;;;;;;;;;5033299;28;20060;-71
2023/12/21 11:28:28;;;;;;;0.82;0.70;;;;;;;;;;5033930;28;20029;-71
2023/12/21 11:30:54;;;;;;;0.80;0.70;;;;;;;;;;5048686;28;20124;-71
2023/12/21 11:33:27;;;;;;;0.82;0.82;;;;;;;;;;5015893;28;20064;-71
2023/12/21 11:35:53;;;;;;;0.70;0.70;;;;;;;;;;5033179;28;20472;-72
2023/12/21 11:38:19;;;;;;;1.23;1.08;;;;;;;;;;5033088;28;20033;-72
2023/12/21 11:40:47;;;;;;;1.23;1.13;;;;;;;;;;5033436;28;20032;-72
2023/12/21 11:43:19;;;;;;;0.73;0.70;;;;;;;;;;5034211;28;20030;-72
2023/12/21 11:45:49;;;;;;;0.90;0.90;;;;;;;;;;5036880;28;20120;-71
2023/12/21 11:48:17;;;;;;;1.33;1.02;;;;;;;;;;5035537;28;20438;-72
2023/12/21 11:50:43;;;;;;;1.20;0.90;;;;;;;;;;5036771;28;20086;-72
2023/12/21 11:53:08;;;;;;;1.13;0.80;;;;;;;;;;5036715;28;20076;-72
2023/12/21 11:55:38;;;;;;;1.42;1.17;;;;;;;;;;5052044;28;20053;-72
2023/12/21 11:58:07;;;;;;;0.65;0.40;;;;;;;;;;5036585;28;20069;-72
2023/12/21 12:00:33;;;;;;;0.75;0.75;;;;;;;;;;5036421;28;20029;-71
2023/12/21 12:02:59;;;;;;;0.75;0.50;;;;;;;;;;5036479;28;20079;-71
2023/12/21 12:05:27;;;;;;;1.23;1.13;;;;;;;;;;5036459;28;20491;-71
2023/12/21 12:07:54;;;;;;;1.35;0.88;;;;;;;;;;5035167;28;20103;-72
2023/12/21 12:10:19;;;;;;;1.92;0.93;;;;;;;;;;5019049;28;20048;-71
2023/12/21 12:12:45;;;;;;;2.47;1.40;;;;;;;;;;5052108;28;20029;-72
2023/12/21 12:15:11;;;;;;;1.30;0.82;;;;;;;;;;5018548;28;20442;-71
2023/12/21 12:17:40;;;;;;;1.17;1.05;;;;;;;;;;5036184;28;20029;-72
2023/12/21 12:20:06;;;;;;;1.45;1.35;;;;;;;;;;5036277;28;20021;-72
2023/12/21 12:22:32;;;;;;;2.33;1.30;;;;;;;;;;5018856;28;20061;-72
2023/12/21 12:24:58;;;;;;;2.47;1.40;;;;;;;;;;5036153;28;20475;-72
2023/12/21 12:27:23;;;;;;;1.30;1.17;;;;;;;;;;5036058;28;20113;-72
2023/12/21 12:29:52;;;;;;;2.00;1.48;;;;;;;;;;5036014;28;20037;-72
2023/12/21 12:32:17;;;;;;;0.95;0.70;;;;;;;;;;5036284;28;20087;-72
2023/12/21 12:34:44;;;;;;;2.22;1.33;;;;;;;;;;5035934;28;20034;-72
2023/12/21 12:37:09;;;;;;;0.60;0.57;;;;;;;;;;5036104;28;20029;-72
2023/12/21 12:39:34;;;;;;;1.98;1.48;;;;;;;;;;5036114;28;20025;-72
2023/12/21 12:42:02;;;;;;;0.85;0.73;;;;;;;;;;5035833;28;20029;-72
2023/12/21 12:44:27;;;;;;;0.25;0.25;;;;;;;;;;5035778;28;20034;-72
2023/12/21 12:46:53;;;;;;;2.78;0.68;;;;;;;;;;5035991;28;20032;-72
2023/12/21 12:49:18;;;;;;;0.65;0.50;;;;;;;;;;5035653;28;20124;-72
2023/12/21 12:51:44;;;;;;;1.30;1.15;;;;;;;;;;5035630;28;20061;-72
2023/12/21 12:54:09;;;;;;;1.10;1.00;;;;;;;;;;5017622;28;20120;-72
2023/12/21 12:56:53;;;;;;;0.82;0.77;;;;;;;;;;5034758;28;20037;-72
2023/12/21 12:59:19;;;;;;;1.45;1.05;;;;;;;;;;5035473;28;20041;-72
2023/12/21 13:01:44;;;;;;;0.40;0.30;;;;;;;;;;5035489;28;20370;-72
2023/12/21 13:04:13;;;;;;;1.00;0.85;;;;;;;;;;5082270;22;20052;31
2023/12/21 13:06:38;;;;;;;0.50;0.50;;;;;;;;;;5070149;22;20453;-71
2023/12/21 13:09:04;;;;;;;1.30;1.20;;;;;;;;;;5102589;22;20052;-72
2023/12/21 13:11:31;;;;;;;1.00;1.00;;;;;;;;;;5095767;28;20043;-72
2023/12/21 13:13:57;;;;;;;0.90;0.88;;;;;;;;;;5095058;28;20031;-72
2023/12/21 13:16:23;;;;;;;1.00;0.70;;;;;;;;;;5094335;28;20025;-72
2023/12/21 13:18:49;;;;;;;1.45;1.35;;;;;;;;;;5076183;28;20039;-72
2023/12/21 13:21:14;;;;;;;1.95;1.85;;;;;;;;;;5094481;28;20390;-72
2023/12/21 13:23:40;;;;;;;2.13;2.03;;;;;;;;;;5094275;28;20024;-72
2023/12/21 13:26:07;;;;;;;1.90;1.35;;;;;;;;;;5076001;28;20225;-72
2023/12/21 13:28:33;;;;;;;1.52;1.27;;;;;;;;;;5094069;28;20039;-72
2023/12/21 13:30:58;;;;;;;2.10;1.75;;;;;;;;;;5092834;28;20032;-72
2023/12/21 13:33:23;;;;;;;1.70;1.30;;;;;;;;;;5093937;28;20019;-72
2023/12/21 13:35:49;;;;;;;1.08;1.08;;;;;;;;;;5075875;28;20044;-72
2023/12/21 13:38:15;;;;;;;1.45;1.35;;;;;;;;;;5093736;28;20051;-72
2023/12/21 13:40:41;;;;;;;1.67;1.15;;;;;;;;;;5093801;28;20027;-72
2023/12/21 13:43:07;;;;;;;0.75;0.55;;;;;;;;;;5075770;28;20107;-72
2023/12/21 13:45:32;;;;;;;0.90;0.77;;;;;;;;;;5093687;28;20061;-72
2023/12/21 13:47:58;;;;;;;1.42;1.33;;;;;;;;;;5093655;28;20032;-71
2023/12/21 13:50:23;;;;;;;0.63;0.55;;;;;;;;;;5093598;28;20031;-71
2023/12/21 13:52:49;;;;;;;2.03;1.23;;;;;;;;;;5093614;28;20115;-71
2023/12/21 13:55:14;;;;;;;0.50;0.50;;;;;;;;;;5093608;28;20059;-71
2023/12/21 13:57:40;;;;;;;1.33;1.20;;;;;;;;;;5092906;28;20124;-71
2023/12/21 14:00:07;;;;;;;1.25;1.15;;;;;;;;;;5095070;28;20115;-71
2023/12/21 14:02:37;;;;;;;1.90;1.45;;;;;;;;;;5093215;28;20538;-71
2023/12/21 14:05:02;;;;;;;1.08;1.00;;;;;;;;;;5092851;28;20107;-71
2023/12/21 14:07:29;;;;;;;1.45;1.27;;;;;;;;;;5075590;28;20393;-71
2023/12/21 14:09:54;;;;;;;1.42;1.30;;;;;;;;;;5093901;28;20036;-71
2023/12/21 14:12:20;;;;;;;1.70;1.60;;;;;;;;;;5074254;28;20447;-71
2023/12/21 14:14:45;;;;;;;1.25;1.17;;;;;;;;;;5092390;28;20508;-71
2023/12/21 14:17:11;;;;;;;2.15;1.67;;;;;;;;;;5092205;28;20035;-71
2023/12/21 14:19:37;;;;;;;1.67;1.58;;;;;;;;;;5092583;28;20027;-71
2023/12/21 14:22:02;;;;;;;6.13;2.92;;;;;;;;;;5092505;28;20378;-71
2023/12/21 14:24:28;;;;;;;1.15;1.05;;;;;;;;;;5092526;28;20028;-71
2023/12/21 14:26:53;;;;;;;1.02;0.90;;;;;;;;;;5093993;28;20060;-71
2023/12/21 14:29:20;;;;;;;2.10;1.85;;;;;;;;;;5092417;22;20057;-71
2023/12/21 14:31:46;;;;;;;2.38;1.42;;;;;;;;;;5072926;28;20025;-72
2023/12/21 14:34:11;;;;;;;2.10;1.90;;;;;;;;;;5073078;28;20435;-72
2023/12/21 14:36:36;;;;;;;2.33;2.22;;;;;;;;;;5072743;28;20060;-71
2023/12/21 14:39:04;;;;;;;1.20;1.10;;;;;;;;;;5072749;28;20035;-71
2023/12/21 14:41:30;;;;;;;1.58;1.48;;;;;;;;;;5072642;28;20036;-71
2023/12/21 14:43:55;;;;;;;2.17;1.23;;;;;;;;;;5072698;28;20070;-71